createdAt,value
2022-09-15T00:00:12.170Z,98135.81
2022-09-15T00:02:40.157Z,98127.78
2022-09-15T00:05:07.760Z,98116.97
2022-09-15T00:07:41.767Z,98115.56
2022-09-15T00:10:09.525Z,98108.69
2022-09-15T00:12:37.752Z,98113.59
2022-09-15T00:15:14.913Z,98097.03
2022-09-15T00:17:43.629Z,98105.84
2022-09-15T00:20:21.659Z,98117.13
2022-09-15T00:22:49.680Z,98106.31
2022-09-15T00:25:23.900Z,98106.97
2022-09-15T00:27:50.819Z,98109.41
2022-09-15T00:30:19.960Z,98077.38
2022-09-15T00:32:51.933Z,98068.09
2022-09-15T00:35:21.800Z,98084.66
2022-09-15T00:37:50.810Z,98083.97
2022-09-15T00:40:18.044Z,98075.66
2022-09-15T00:42:46.052Z,98079.19
2022-09-15T00:45:16.492Z,98078.03
2022-09-15T00:47:44.947Z,98071.75
2022-09-15T00:50:22.255Z,98075.09
2022-09-15T00:53:05.575Z,98094.06
2022-09-15T00:55:43.750Z,98101.53
2022-09-15T00:58:34.675Z,98092.66
2022-09-15T01:01:04.265Z,98097.88
2022-09-15T01:04:18.205Z,98094.91
2022-09-15T01:06:58.906Z,98081.56
2022-09-15T01:09:41.853Z,98076.78
2022-09-15T01:12:13.933Z,98079.31
2022-09-15T01:14:45.119Z,98079.59
2022-09-15T01:17:14.299Z,98071.75
2022-09-15T01:20:10.649Z,98084.66
2022-09-15T01:23:31.513Z,98083.41
2022-09-15T01:26:20.212Z,98069.75
2022-09-15T01:29:17.559Z,98065.28
2022-09-15T01:32:10.791Z,98063.03
2022-09-15T01:34:55.406Z,98065.16
2022-09-15T01:37:32.205Z,98058.81
2022-09-15T01:40:06.928Z,98058.25
2022-09-15T01:42:38.178Z,98048.69
2022-09-15T01:45:14.466Z,98047.31
2022-09-15T01:47:45.147Z,98050.41
2022-09-15T01:50:25.230Z,98052.94
2022-09-15T01:52:57.997Z,98051.66
2022-09-15T01:55:38.193Z,98059.97
2022-09-15T01:58:12.104Z,98047.88
2022-09-15T02:00:47.427Z,98056.00
2022-09-15T02:03:39.737Z,98044.75
2022-09-15T02:06:17.190Z,98043.66
2022-09-15T02:08:47.929Z,98044.50
2022-09-15T02:11:26.934Z,98040.69
2022-09-15T02:14:11.600Z,98036.34
2022-09-15T02:16:43.512Z,98024.28
2022-09-15T02:19:32.025Z,98040.69
2022-09-15T02:22:23.238Z,98036.34
2022-09-15T02:25:33.916Z,98038.91
2022-09-15T02:28:09.154Z,98029.19
2022-09-15T02:30:49.446Z,98024.16
2022-09-15T02:33:36.171Z,98031.72
2022-09-15T02:39:49.501Z,98027.34
2022-09-15T02:42:33.470Z,98028.50
2022-09-15T02:45:09.232Z,98029.75
2022-09-15T02:48:01.108Z,98031.56
2022-09-15T02:50:39.346Z,98033.56
2022-09-15T02:53:29.127Z,98028.63
2022-09-15T02:55:58.270Z,98019.78
2022-09-15T03:02:16.662Z,98003.78
2022-09-15T03:05:35.170Z,98008.28
2022-09-15T03:08:10.506Z,98013.47
2022-09-15T03:10:46.742Z,97977.53
2022-09-15T03:13:24.102Z,97967.13
2022-09-15T03:16:09.565Z,97963.91
2022-09-15T03:19:20.142Z,97978.50
2022-09-15T03:22:00.429Z,97979.63
2022-09-15T03:24:35.944Z,98000.25
2022-09-15T03:27:34.607Z,98004.91
2022-09-15T03:30:11.663Z,98016.41
2022-09-15T03:32:49.847Z,98018.09
2022-09-15T03:35:33.485Z,98033.13
2022-09-15T03:38:33.796Z,98027.34
2022-09-15T03:41:22.951Z,98029.34
2022-09-15T03:43:55.301Z,98035.94
2022-09-15T03:46:38.344Z,98033.00
2022-09-15T03:49:11.526Z,98037.50
2022-09-15T03:51:51.476Z,98049.25
2022-09-15T03:55:05.182Z,98048.16
2022-09-15T03:57:34.171Z,98035.78
2022-09-15T04:00:05.510Z,98036.19
2022-09-15T04:02:33.500Z,98039.72
2022-09-15T04:05:00.644Z,98056.56
2022-09-15T04:07:30.558Z,98063.75
2022-09-15T04:10:10.092Z,98068.25
2022-09-15T04:12:37.163Z,98080.16
2022-09-15T04:15:04.635Z,98083.22
2022-09-15T04:17:33.691Z,98086.19
2022-09-15T04:20:03.351Z,98093.75
2022-09-15T04:22:33.325Z,98111.00
2022-09-15T04:25:01.326Z,98120.41
2022-09-15T04:27:29.472Z,98130.75
2022-09-15T04:30:07.444Z,98132.97
2022-09-15T04:32:36.369Z,98132.63
2022-09-15T04:35:08.811Z,98137.47
2022-09-15T04:37:35.950Z,98142.81
2022-09-15T04:40:04.378Z,98152.03
2022-09-15T04:42:31.972Z,98153.16
2022-09-15T04:44:59.489Z,98142.50
2022-09-15T04:47:37.787Z,98145.28
2022-09-15T04:50:05.118Z,98137.28
2022-09-15T04:52:34.309Z,98137.59
2022-09-15T04:55:07.965Z,98132.84
2022-09-15T04:57:38.029Z,98144.78
2022-09-15T05:00:07.381Z,98143.78
2022-09-15T05:02:42.806Z,98144.44
2022-09-15T05:05:09.998Z,98156.41
2022-09-15T05:07:38.142Z,98158.56
2022-09-15T05:10:08.524Z,98159.88
2022-09-15T05:12:35.689Z,98166.16
2022-09-15T05:15:04.099Z,98167.72
2022-09-15T05:17:40.136Z,98179.38
2022-09-15T05:20:08.467Z,98184.97
2022-09-15T05:22:39.526Z,98188.53
2022-09-15T05:25:08.926Z,98181.50
2022-09-15T05:27:36.896Z,98183.06
2022-09-15T05:30:34.851Z,98183.91
2022-09-15T05:32:57.995Z,98192.63
2022-09-15T05:35:25.677Z,98195.56
2022-09-15T05:37:53.659Z,98199.63
2022-09-15T05:40:22.484Z,98197.97
2022-09-15T05:42:49.552Z,98203.28
2022-09-15T05:45:19.570Z,98201.06
2022-09-15T05:47:46.550Z,98209.50
2022-09-15T05:50:18.687Z,98209.09
2022-09-15T05:52:51.589Z,98215.63
2022-09-15T05:55:18.845Z,98213.84
2022-09-15T05:57:47.928Z,98220.31
2022-09-15T06:00:17.156Z,98216.06
2022-09-15T06:02:45.290Z,98215.41
2022-09-15T06:05:13.663Z,98213.84
2022-09-15T06:07:41.701Z,98213.00
2022-09-15T06:10:10.218Z,98216.66
2022-09-15T06:12:43.182Z,98214.06
2022-09-15T06:15:12.896Z,98219.66
2022-09-15T06:17:41.867Z,98228.81
2022-09-15T06:20:22.098Z,98225.41
2022-09-15T06:22:49.085Z,98240.75
2022-09-15T06:25:16.227Z,98240.31
2022-09-15T06:27:43.210Z,98245.06
2022-09-15T06:30:10.986Z,98246.44
2022-09-15T06:32:38.183Z,98251.09
2022-09-15T06:35:07.417Z,98249.41
2022-09-15T06:37:37.604Z,98253.31
2022-09-15T06:40:05.528Z,98254.50
2022-09-15T06:42:34.412Z,98263.34
2022-09-15T06:45:01.570Z,98276.81
2022-09-15T06:47:34.228Z,98268.53
2022-09-15T06:50:03.791Z,98274.16
2022-09-15T06:52:31.843Z,98272.31
2022-09-15T06:55:01.018Z,98285.00
2022-09-15T06:57:30.048Z,98281.56
2022-09-15T06:59:58.277Z,98288.94
2022-09-15T07:02:26.436Z,98295.97
2022-09-15T07:04:53.774Z,98298.06
2022-09-15T07:07:24.025Z,98305.13
2022-09-15T07:09:52.511Z,98317.31
2022-09-15T07:12:29.386Z,98322.91
2022-09-15T07:14:57.415Z,98329.50
2022-09-15T07:17:26.969Z,98332.00
2022-09-15T07:19:58.981Z,98332.84
2022-09-15T07:22:34.084Z,98327.28
2022-09-15T07:25:28.586Z,98327.13
2022-09-15T07:27:57.649Z,98327.13
2022-09-15T07:30:45.108Z,98336.84
2022-09-15T07:33:14.528Z,98345.47
2022-09-15T07:35:47.976Z,98359.03
2022-09-15T07:38:15.082Z,98369.31
2022-09-15T07:40:49.334Z,98370.88
2022-09-15T07:43:16.576Z,98371.97
2022-09-15T07:45:53.019Z,98370.75
2022-09-15T07:48:25.794Z,98383.06
2022-09-15T07:51:00.240Z,98394.94
2022-09-15T07:53:30.744Z,98403.91
2022-09-15T07:56:03.935Z,98401.94
2022-09-15T07:58:33.864Z,98402.69
2022-09-15T08:01:06.893Z,98407.06
2022-09-15T08:03:34.972Z,98415.53
2022-09-15T08:06:24.623Z,98414.25
2022-09-15T08:08:56.383Z,98421.25
2022-09-15T08:11:32.886Z,98413.34
2022-09-15T08:14:03.513Z,98420.50
2022-09-15T08:16:32.058Z,98425.22
2022-09-15T08:19:07.442Z,98437.06
2022-09-15T08:21:40.792Z,98431.75
2022-09-15T08:24:14.185Z,98435.75
2022-09-15T08:26:51.305Z,98439.00
2022-09-15T08:29:35.648Z,98444.31
2022-09-15T08:32:04.968Z,98443.34
2022-09-15T08:34:33.901Z,98452.31
2022-09-15T08:37:04.086Z,98445.59
2022-09-15T08:39:32.204Z,98449.63
2022-09-15T08:42:06.850Z,98438.16
2022-09-15T08:44:37.674Z,98445.75
2022-09-15T08:47:17.742Z,98435.69
2022-09-15T08:49:57.514Z,98426.94
2022-09-15T08:52:41.945Z,98439.66
2022-09-15T08:55:38.197Z,98434.28
2022-09-15T08:58:30.006Z,98445.50
2022-09-15T09:01:16.476Z,98440.97
2022-09-15T09:04:21.652Z,98444.97
2022-09-15T09:07:25.811Z,98457.38
2022-09-15T09:10:19.829Z,98463.41
2022-09-15T09:12:56.828Z,98453.47
2022-09-15T09:15:32.886Z,98438.00
2022-09-15T09:18:30.900Z,98434.75
2022-09-15T09:21:40.136Z,98434.84
2022-09-15T09:24:26.581Z,98428.41
2022-09-15T09:26:56.115Z,98430.41
2022-09-15T09:30:00.996Z,98438.22
2022-09-15T09:32:39.620Z,98439.38
2022-09-15T09:35:32.829Z,98438.28
2022-09-15T09:38:15.033Z,98433.41
2022-09-15T09:40:43.377Z,98429.63
2022-09-15T09:43:11.395Z,98419.25
2022-09-15T09:45:38.549Z,98425.66
2022-09-15T09:48:26.649Z,98432.25
2022-09-15T09:50:59.786Z,98429.09
2022-09-15T09:53:36.960Z,98427.66
2022-09-15T09:56:25.797Z,98428.31
2022-09-15T09:59:00.026Z,98436.91
2022-09-15T10:01:28.263Z,98436.66
2022-09-15T10:04:23.224Z,98423.34
2022-09-15T10:06:56.412Z,98415.41
2022-09-15T10:09:23.521Z,98403.19
2022-09-15T10:12:32.180Z,98413.97
2022-09-15T10:15:05.452Z,98405.13
2022-09-15T10:17:59.710Z,98411.94
2022-09-15T10:20:55.302Z,98405.84
2022-09-15T10:23:28.117Z,98398.09
2022-09-15T10:26:00.362Z,98392.81
2022-09-15T10:29:17.371Z,98385.16
2022-09-15T10:31:46.492Z,98385.09
2022-09-15T10:34:26.965Z,98384.38
2022-09-15T10:37:06.538Z,98380.03
2022-09-15T10:39:54.621Z,98383.41
2022-09-15T10:42:44.340Z,98379.72
2022-09-15T10:45:25.937Z,98381.91
2022-09-15T10:48:16.224Z,98375.09
2022-09-15T10:50:55.493Z,98372.66
2022-09-15T10:53:29.523Z,98376.00
2022-09-15T10:56:16.633Z,98371.59
2022-09-15T10:59:32.428Z,98375.72
2022-09-15T11:02:14.895Z,98376.91
2022-09-15T11:05:00.650Z,98367.44
2022-09-15T11:07:46.505Z,98370.59
2022-09-15T11:10:27.457Z,98376.25
2022-09-15T11:13:18.816Z,98391.25
2022-09-15T11:15:48.817Z,98386.72
2022-09-15T11:18:40.099Z,98387.78
2022-09-15T11:21:27.136Z,98386.41
2022-09-15T11:24:22.439Z,98392.84
2022-09-15T11:26:58.237Z,98379.41
2022-09-15T11:29:29.792Z,98380.91
2022-09-15T11:32:12.138Z,98387.59
2022-09-15T11:34:51.330Z,98379.03
2022-09-15T11:37:45.571Z,98371.59
2022-09-15T11:40:41.360Z,98358.44
2022-09-15T11:43:21.115Z,98357.22
2022-09-15T11:45:54.775Z,98354.50
2022-09-15T11:48:41.410Z,98347.50
2022-09-15T11:51:16.165Z,98343.47
2022-09-15T11:53:48.999Z,98333.03
2022-09-15T11:56:43.033Z,98333.09
2022-09-15T11:59:27.876Z,98342.66
2022-09-15T12:02:28.749Z,98330.34
2022-09-15T12:05:19.594Z,98348.59
2022-09-15T12:08:02.825Z,98339.41
2022-09-15T12:10:41.267Z,98340.34
2022-09-15T12:13:18.524Z,98346.69
2022-09-15T12:16:09.159Z,98338.34
2022-09-15T12:18:57.739Z,98340.91
2022-09-15T12:21:51.620Z,98338.66
2022-09-15T12:24:40.016Z,98340.16
2022-09-15T12:27:18.742Z,98337.97
2022-09-15T12:29:56.479Z,98338.75
2022-09-15T12:32:27.217Z,98344.03
2022-09-15T12:35:18.084Z,98351.94
2022-09-15T12:37:54.056Z,98350.16
2022-09-15T12:41:18.517Z,98340.59
2022-09-15T12:44:05.259Z,98333.91
2022-09-15T12:46:33.401Z,98343.41
2022-09-15T12:49:13.740Z,98338.00
2022-09-15T12:51:50.287Z,98352.94
2022-09-15T12:54:29.805Z,98349.13
2022-09-15T12:56:59.702Z,98357.31
2022-09-15T12:59:29.221Z,98348.50
2022-09-15T13:01:58.203Z,98345.88
2022-09-15T13:04:51.760Z,98337.44
2022-09-15T13:07:21.223Z,98333.47
2022-09-15T13:10:08.474Z,98331.72
2022-09-15T13:12:41.492Z,98324.53
2022-09-15T13:15:15.033Z,98332.16
2022-09-15T13:17:46.701Z,98330.16
2022-09-15T13:20:34.593Z,98307.41
2022-09-15T13:23:04.102Z,98301.44
2022-09-15T13:25:31.576Z,98311.16
2022-09-15T13:28:01.937Z,98312.47
2022-09-15T13:30:43.320Z,98305.81
2022-09-15T13:40:32.756Z,98316.38
2022-09-15T13:43:33.316Z,98323.88
2022-09-15T13:46:35.838Z,98319.63
2022-09-15T13:49:38.300Z,98308.34
2022-09-15T13:52:23.573Z,98307.13
2022-09-15T13:55:19.074Z,98312.91
2022-09-15T14:01:00.374Z,98301.69
2022-09-15T14:03:40.212Z,98298.63
2022-09-15T14:06:43.275Z,98295.84
2022-09-15T14:09:31.273Z,98306.63
2022-09-15T14:12:08.370Z,98301.72
2022-09-15T14:14:44.683Z,98299.22
2022-09-15T14:17:30.130Z,98303.97
2022-09-15T14:20:00.909Z,98299.59
2022-09-15T14:22:30.612Z,98300.06
2022-09-15T14:25:16.855Z,98306.22
2022-09-15T14:27:47.142Z,98304.91
2022-09-15T14:30:27.182Z,98308.47
2022-09-15T14:33:00.701Z,98306.16
2022-09-15T14:35:35.809Z,98305.53
2022-09-15T14:38:03.239Z,98297.44
2022-09-15T14:40:36.175Z,98293.03
2022-09-15T14:43:40.960Z,98303.66
2022-09-15T14:46:13.898Z,98302.47
2022-09-15T14:49:08.143Z,98304.41
2022-09-15T14:51:46.654Z,98304.13
2022-09-15T14:54:24.777Z,98303.56
2022-09-15T14:56:55.274Z,98317.16
2022-09-15T14:59:42.013Z,98316.84
2022-09-15T15:02:33.332Z,98321.84
2022-09-15T15:05:26.665Z,98313.06
2022-09-15T15:07:55.837Z,98316.31
2022-09-15T15:10:28.569Z,98311.41
2022-09-15T15:13:21.132Z,98303.81
2022-09-15T15:15:49.086Z,98308.22
2022-09-15T15:18:40.322Z,98301.78
2022-09-15T15:21:41.366Z,98312.47
2022-09-15T15:24:14.212Z,98314.25
2022-09-15T15:26:44.878Z,98307.88
2022-09-15T15:29:48.423Z,98310.53
2022-09-15T15:32:27.412Z,98294.81
2022-09-15T15:35:04.303Z,98296.84
2022-09-15T15:37:34.247Z,98306.50
2022-09-15T15:40:07.399Z,98304.00
2022-09-15T15:43:07.189Z,98313.13
2022-09-15T15:45:57.824Z,98309.94
2022-09-15T15:48:26.223Z,98312.16
2022-09-15T15:50:54.664Z,98315.09
2022-09-15T15:53:21.992Z,98311.84
2022-09-15T15:55:49.072Z,98323.56
2022-09-15T15:58:45.098Z,98322.69
2022-09-15T16:01:28.804Z,98316.88
2022-09-15T16:03:56.948Z,98315.00
2022-09-15T16:06:25.206Z,98318.94
2022-09-15T16:09:03.451Z,98322.28
2022-09-15T16:11:33.817Z,98337.44
2022-09-15T16:14:00.899Z,98322.78
2022-09-15T16:16:33.166Z,98322.53
2022-09-15T16:19:19.438Z,98318.84
2022-09-15T16:21:47.606Z,98321.19
2022-09-15T16:24:16.079Z,98325.16
2022-09-15T16:26:43.831Z,98322.63
2022-09-15T16:29:36.549Z,98324.59
2022-09-15T16:32:07.652Z,98333.41
2022-09-15T16:34:34.664Z,98338.34
2022-09-15T16:37:01.858Z,98339.56
2022-09-15T16:39:31.566Z,98337.31
2022-09-15T16:44:26.391Z,98335.22
2022-09-15T16:46:53.478Z,98334.84
2022-09-15T16:49:20.795Z,98342.25
2022-09-15T16:51:48.887Z,98344.22
2022-09-15T16:54:20.506Z,98342.72
2022-09-15T16:56:56.766Z,98344.22
2022-09-15T16:59:37.139Z,98354.97
2022-09-15T17:02:12.756Z,98344.47
2022-09-15T17:04:41.898Z,98346.16
2022-09-15T17:07:11.946Z,98344.38
2022-09-15T17:09:47.468Z,98334.31
2022-09-15T17:12:14.703Z,98329.59
2022-09-15T17:14:45.751Z,98338.69
2022-09-15T17:17:25.701Z,98345.09
2022-09-15T17:19:55.690Z,98338.34
2022-09-15T17:22:25.851Z,98353.03
2022-09-15T17:24:56.874Z,98353.75
2022-09-15T17:27:25.154Z,98360.53
2022-09-15T17:29:53.296Z,98354.75
2022-09-15T17:32:20.418Z,98354.28
2022-09-15T17:34:47.646Z,98354.50
2022-09-15T17:37:18.876Z,98355.84
2022-09-15T17:39:58.899Z,98358.41
2022-09-15T17:42:31.670Z,98359.88
2022-09-15T17:45:36.605Z,98353.56
2022-09-15T17:48:05.088Z,98363.38
2022-09-15T17:50:40.249Z,98357.56
2022-09-15T17:53:22.933Z,98350.22
2022-09-15T17:55:55.899Z,98345.00
2022-09-15T17:58:25.405Z,98346.81
2022-09-15T18:00:53.479Z,98357.50
2022-09-15T18:03:33.878Z,98352.66
2022-09-15T18:06:12.305Z,98354.56
2022-09-15T18:08:40.249Z,98368.38
2022-09-15T18:11:14.765Z,98368.38
2022-09-15T18:13:42.236Z,98373.47
2022-09-15T18:16:14.764Z,98366.19
2022-09-15T18:18:42.304Z,98375.16
2022-09-15T18:21:22.547Z,98380.38
2022-09-15T18:23:51.218Z,98381.56
2022-09-15T18:26:23.862Z,98382.88
2022-09-15T18:28:55.008Z,98382.25
2022-09-15T18:31:22.594Z,98396.06
2022-09-15T18:33:49.920Z,98391.13
2022-09-15T18:36:17.335Z,98387.22
2022-09-15T18:38:44.798Z,98384.06
2022-09-15T18:41:12.422Z,98385.78
2022-09-15T18:43:39.921Z,98392.53
2022-09-15T18:46:08.414Z,98399.78
2022-09-15T18:48:35.756Z,98398.09
2022-09-15T18:51:08.923Z,98398.31
2022-09-15T18:53:39.602Z,98407.88
2022-09-15T18:56:14.476Z,98416.69
2022-09-15T18:58:42.059Z,98405.31
2022-09-15T19:01:10.543Z,98399.41
2022-09-15T19:03:44.866Z,98404.09
2022-09-15T19:06:12.701Z,98402.38
2022-09-15T19:08:41.298Z,98402.75
2022-09-15T19:11:16.796Z,98411.47
2022-09-15T19:13:44.156Z,98416.84
2022-09-15T19:16:11.655Z,98417.38
2022-09-15T19:18:39.850Z,98420.47
2022-09-15T19:21:09.190Z,98423.19
2022-09-15T19:23:36.607Z,98417.47
2022-09-15T19:26:09.119Z,98420.69
2022-09-15T19:28:36.438Z,98418.28
2022-09-15T19:31:03.771Z,98421.31
2022-09-15T19:33:32.098Z,98413.91
2022-09-15T19:36:24.191Z,98411.78
2022-09-15T19:38:54.766Z,98411.66
2022-09-15T19:41:23.074Z,98417.50
2022-09-15T19:43:50.089Z,98420.34
2022-09-15T19:46:21.298Z,98414.41
2022-09-15T19:48:50.185Z,98418.25
2022-09-15T19:51:18.167Z,98419.50
2022-09-15T19:53:46.843Z,98423.13
2022-09-15T19:56:18.750Z,98422.50
2022-09-15T19:58:46.631Z,98426.81
2022-09-15T20:01:15.685Z,98424.72
2022-09-15T20:06:35.799Z,98433.09
2022-09-15T20:09:08.084Z,98432.34
2022-09-15T20:11:36.186Z,98436.81
2022-09-15T20:14:06.854Z,98430.13
2022-09-15T20:16:35.907Z,98432.66
2022-09-15T20:19:05.216Z,98432.78
2022-09-15T20:21:49.820Z,98425.03
2022-09-15T20:24:29.837Z,98428.03
2022-09-15T20:27:00.861Z,98420.28
2022-09-15T20:29:28.073Z,98423.66
2022-09-15T20:31:56.245Z,98432.34
2022-09-15T20:34:23.237Z,98434.50
2022-09-15T20:36:51.271Z,98436.88
2022-09-15T20:39:22.374Z,98442.81
2022-09-15T20:41:52.570Z,98436.75
2022-09-15T20:44:23.528Z,98440.25
2022-09-15T20:46:53.862Z,98445.13
2022-09-15T20:49:25.003Z,98447.88
2022-09-15T20:51:53.280Z,98448.78
2022-09-15T20:54:25.618Z,98452.97
2022-09-15T20:56:52.636Z,98449.25
2022-09-15T20:59:26.832Z,98444.28
2022-09-15T21:01:57.018Z,98442.81
2022-09-15T21:04:25.083Z,98447.09
2022-09-15T21:06:55.198Z,98450.09
2022-09-15T21:09:22.204Z,98446.94
2022-09-15T21:11:53.584Z,98456.47
2022-09-15T21:14:22.906Z,98452.88
2022-09-15T21:16:55.057Z,98459.03
2022-09-15T21:19:22.215Z,98472.66
2022-09-15T21:21:54.710Z,98471.91
2022-09-15T21:24:22.935Z,98471.13
2022-09-15T21:27:08.149Z,98479.91
2022-09-15T21:29:36.207Z,98480.13
2022-09-15T21:32:05.324Z,98481.59
2022-09-15T21:34:32.360Z,98488.81
2022-09-15T21:36:59.358Z,98476.06
2022-09-15T21:39:27.847Z,98491.25
2022-09-15T21:41:56.019Z,98480.31
2022-09-15T21:44:28.160Z,98487.75
2022-09-15T21:47:01.426Z,98495.38
2022-09-15T21:49:38.611Z,98504.19
2022-09-15T21:52:05.663Z,98500.50
2022-09-15T21:54:33.700Z,98508.53
2022-09-15T21:57:00.929Z,98508.56
2022-09-15T21:59:28.967Z,98518.13
2022-09-15T22:01:58.130Z,98519.28
2022-09-15T22:04:26.258Z,98510.69
2022-09-15T22:07:04.736Z,98510.88
2022-09-15T22:09:39.019Z,98518.75
2022-09-15T22:12:06.317Z,98506.66
2022-09-15T22:14:39.530Z,98511.34
2022-09-15T22:17:17.984Z,98517.50
2022-09-15T22:19:51.175Z,98523.00
2022-09-15T22:22:18.258Z,98523.09
2022-09-15T22:24:45.337Z,98527.56
2022-09-15T22:27:12.293Z,98532.25
2022-09-15T22:29:41.438Z,98528.66
2022-09-15T22:32:09.382Z,98533.00
2022-09-15T22:34:38.415Z,98533.84
2022-09-15T22:37:05.548Z,98542.88
2022-09-15T22:39:57.150Z,98539.16
2022-09-15T22:42:26.187Z,98533.63
2022-09-15T22:45:01.249Z,98533.63
2022-09-15T22:47:45.219Z,98528.97
2022-09-15T22:50:12.400Z,98526.41
2022-09-15T22:52:40.391Z,98532.88
2022-09-15T22:55:07.838Z,98529.59
2022-09-15T22:57:41.952Z,98527.78
2022-09-15T23:00:11.782Z,98531.31
2022-09-15T23:02:38.850Z,98544.25
2022-09-15T23:05:10.317Z,98535.75
2022-09-15T23:07:37.352Z,98538.94
2022-09-15T23:10:06.572Z,98540.88
2022-09-15T23:12:35.228Z,98538.00
2022-09-15T23:15:04.689Z,98540.03
2022-09-15T23:17:36.138Z,98546.56
2022-09-15T23:20:06.417Z,98548.06
2022-09-15T23:22:33.448Z,98545.97
2022-09-15T23:25:01.530Z,98550.84
2022-09-15T23:27:38.469Z,98557.31
2022-09-15T23:30:10.321Z,98549.34
2022-09-15T23:32:41.309Z,98548.84
2022-09-15T23:35:08.774Z,98550.53
2022-09-15T23:37:35.922Z,98554.03
2022-09-15T23:40:04.171Z,98563.16
2022-09-15T23:42:33.333Z,98562.63
2022-09-15T23:45:07.844Z,98557.97
2022-09-15T23:47:40.072Z,98559.00
2022-09-15T23:50:07.373Z,98559.34
2022-09-15T23:52:34.449Z,98556.47
2022-09-15T23:55:01.574Z,98552.97
2022-09-15T23:57:43.841Z,98549.16
